• Join FlightAware (Why Join?)
  • Login
  • US Flag 
11:07AM EST


 

Airport Tracker/Info


-or-


 

Live Flight TrackerFlight Track Log ✈ SWA847 ✈ 13-May-2013 ✈ KSMF - KLAS

Flight Track Log - Related Links

Times and Time Zones

All times are in EDT time to prevent confusion due to time zone crossing. See the SWA847 flight status page for this flight to view local times or setup timezone preferences in your user account.

Time Position Orientation Groundspeed Altitude Reporting Facility
EDT Latitude Longitude Course Direction KTS MPH feet Rate Location/Type
09:09AM 38.6683 -121.5994 146° Southeast 140 161 1,200  Level Oakland Center
09:09AM 38.6500 -121.5833 146° Southeast 188 216 2,000 1,980 Climbing Northern Cal TRACON
09:10AM 38.6000 -121.5167 134° Southeast 251 289 4,000 3,000 Climbing Northern Cal TRACON
09:11AM 38.5667 -121.4333 117° Southeast 280 322 8,000 3,000 Climbing Northern Cal TRACON
09:13AM 38.5492 -121.2625 97° East 324 373 12,100 3,000 Climbing Oakland Center
09:14AM 38.5317 -121.1239 99° East 359 413 16,100 3,240 Climbing Oakland Center
09:15AM 38.5125 -120.9911 100° East 376 433 18,700 2,580 Climbing Oakland Center
09:16AM 38.4919 -120.8489 100° East 405 466 21,400 2,520 Climbing Oakland Center
09:17AM 38.4689 -120.7053 102° East 414 476 23,800 2,280 Climbing Oakland Center
09:18AM 38.4269 -120.5636 111° Southeast 425 489 26,000 2,040 Climbing Oakland Center
09:19AM 38.3842 -120.4175 110° East 437 503 28,000 2,160 Climbing Oakland Center
09:20AM 38.3422 -120.2694 110° East 443 510 30,400 2,160 Climbing Oakland Center
09:21AM 38.3003 -120.1242 110° East 439 505 32,400 1,260 Climbing Oakland Center
09:22AM 38.2592 -119.9803 110° East 434 499 33,000 240 Climbing Oakland Center
09:23AM 38.2178 -119.8383 110° East 429 494 33,000  Level Oakland Center
09:24AM 38.1750 -119.6967 111° Southeast 430 495 33,000  Level Oakland Center
09:25AM 38.1347 -119.5544 110° East 431 496 33,000  Level Oakland Center
09:26AM 38.0919 -119.4125 111° Southeast 432 497 33,000  Level Oakland Center
09:27AM 38.0492 -119.2722 111° Southeast 428 493 33,000  Level Oakland Center
09:28AM 37.9867 -119.1439 122° Southeast 426 490 33,000  Level Oakland Center
09:29AM 37.9269 -119.0203 121° Southeast 426 490 33,000  Level Oakland Center
09:30AM 37.8639 -118.8886 121° Southeast 423 487 33,000  Level Oakland Center
09:31AM 37.7917 -118.7397 122° Southeast 426 490 33,000  Level Oakland Center
09:32AM 37.7308 -118.6119 121° Southeast 426 490 33,000  Level Oakland Center
09:33AM 37.6683 -118.4844 122° Southeast 426 490 33,000  Level Oakland Center
09:34AM 37.6061 -118.3561 121° Southeast 430 495 33,000  Level Oakland Center
09:35AM 37.5439 -118.2300 122° Southeast 426 490 33,000  Level Oakland Center
09:36AM 37.4822 -118.1033 122° Southeast 425 489 33,000  Level Oakland Center
09:37AM 37.4200 -117.9767 122° Southeast 427 491 33,000  Level Oakland Center
09:38AM 37.3578 -117.8517 122° Southeast 424 488 33,000  Level Oakland Center
09:39AM 37.2956 -117.7278 122° Southeast 422 486 33,000  Level Oakland Center
09:40AM 37.2344 -117.6053 122° Southeast 417 480 33,000  Level Oakland Center
09:41AM 37.1719 -117.4794 122° Southeast 423 487 33,000  Level Oakland Center
09:42AM 37.1086 -117.3544 122° Southeast 424 488 33,000  Level Oakland Center
09:43AM 37.0342 -117.2064 122° Southeast 421 484 33,000  Level Oakland Center
09:44AM 36.9711 -117.0828 123° Southeast 422 486 33,000  Level Oakland Center
09:46AM 36.9081 -116.9578 122° Southeast 423 487 33,000  Level Oakland Center
09:47AM 36.8444 -116.8331 122° Southeast 426 490 33,000 -120 Level Oakland Center
09:47AM 36.8319 -116.8064 120° Southeast 424 488 32,900 -1,200 Descending Los Angeles Center
09:48AM 36.7647 -116.6883 125° Southeast 420 483 31,300 -1,800 Descending Los Angeles Center
09:49AM 36.6744 -116.5639 132° Southeast 407 468 28,900 -2,160 Descending Los Angeles Center
09:50AM 36.6019 -116.4619 132° Southeast 398 458 26,900 -2,040 Descending Los Angeles Center
09:51AM 36.5261 -116.3558 132° Southeast 387 445 24,800 -1,800 Descending Los Angeles Center
09:52AM 36.4569 -116.2572 131° Southeast 381 438 22,900 -1,920 Descending Los Angeles Center
09:53AM 36.4011 -116.1811 132° Southeast 375 432 21,400 -2,460 Descending Los Angeles Center
09:54AM 36.3517 -116.1061 129° Southeast 359 413 19,900 -2,100 Descending Los Angeles Center
09:54AM 36.3322 -116.0886 144° Southeast 364 419 19,500 -1,860 Descending Los Angeles Center
09:55AM 36.2681 -115.9972 131° Southeast 353 406 17,600 -1,740 Descending Los Angeles Center
09:56AM 36.2081 -115.9058 129° Southeast 346 398 16,100 -780 Descending Los Angeles Center
09:57AM 36.1711 -115.8044 114° Southeast 325 374 16,100 -240 Level Los Angeles Center
09:58AM 36.1417 -115.7183 113° Southeast 321 369 15,700 -900 Descending Los Angeles Center
09:59AM 36.1039 -115.6086 113° Southeast 287 330 14,300 -1,380 Descending Los Angeles Center
10:00AM 36.0747 -115.5117 110° East 282 325 12,900 -1,380 Descending Los Angeles Center
10:01AM 36.0453 -115.4256 113° Southeast 271 312 11,600 -1,020 Descending Los Angeles Center
10:02AM 36.0286 -115.3381 103° East 263 303 10,900 -960 Descending Los Angeles Center
10:03AM 36.0222 -115.2578 96° East 253 291 9,800 -1,020 Descending Los Angeles Center
10:04AM 36.0164 -115.1719 95° East 250 288 9,000 -840 Descending Los Angeles Center
10:05AM 36.0097 -115.0917 96° East 236 272 8,100 -540 Descending Los Angeles Center
10:06AM 36.0056 -115.0133 94° East 201 231 8,000 -540 Descending Los Angeles Center
10:07AM 36.0058 -114.9547 90° East 177 204 7,100 -960 Descending Los Angeles Center
10:08AM 36.0511 -114.9450 10° North 178 205 6,100 -1,260 Descending Los Angeles Center
10:09AM 36.0717 -114.9889 300° West 168 193 4,500 -1,380 Descending Los Angeles Center
10:10AM 36.0744 -115.0517 273° West 167 192 3,200 -1,020 Descending Los Angeles Center
10:11AM 36.0742 -115.0997 270° West 143 165 2,500 -540 Descending Los Angeles Center
10:12AM 36.0731 -115.1472 268° West 147 169 2,100 -360 Descending Los Angeles Center
10:14AM 36.0667 -115.1500 270° West  Level FlightAware Approximate